Hlavní strana
METAR-TAF:

METAR-TAF

Letiště :

Mohylev, Bělorusko

zeměpisná šířka: 53-57-18N, zeměpisná délka: 030-05-42E, výška: 194 m

Aktuální stav počasí

Zpráva byla vytvořena před 10 minutami, v 11:00 UTC
Jižní vítr 8 kt
Teplota 16°C
Vlhkost vzduchu 55%
Tlak 1001 hPa
Viditelnost 10 km a více
Oblačno až skoro zataženo ve výšce 3300 ft, Cumulonimbus.
Oblačno až skoro zataženo

METAR: UMOO 041100Z 17004MPS 9999 BKN033CB BKN/// 16/07 Q1001 NOSIG

Čas: 14:10 (11:10 UTC)

Předpověď počasí

Zpráva byla vytvořena před 3 hodinami a 9 minutami, v 08:01 UTC
Předpověď platná od 04 v 09 UTC do 04 v 18 UTC
vítr z různých směrů 4 kt
Viditelnost 10 km a více
Oblačno až skoro zataženo ve výšce 2000 ft
Dočasný
od 04 v 09 UTC do 04 v 18 UTC
vítr z různých směrů 23 kt
Viditelnost: 2000 m
Oblačno až skoro zataženo ve výšce 500 ft
Oblačno až skoro zataženo ve výšce 2500 ft, Cumulonimbus.
bouřka, déšť

TAF: UMOO 040801Z 0409/0418 VRB02MPS 9999 BKN020 TEMPO 0409/0418 VRB12MPS 2000 TSRA BKN005 BKN025CB

Stav a předpovědi počasí z více než 4 000 letišť (zprávy METAR a TAF).

Červené a žluté tečky na mapě představují dostupné meteorologické stanice.

Když kurzor umístíte na tečku, zobrazí se název stanice.

Pak kliknutím zobrazíte stav a předpověď počasí.

Chcete-li změnit mapu, kliknutím na zelené tlačítko se znaménkem +mapu přiblížíte, kliknutím na zelené tlačítko se znaménkem – mapu oddálíte a kliknutím na zelené šipky přejdete na sousední mapy.


METAR-TAF: